Impacts TAF Board INFO
FOR SITUATIONAL AWARENESS. NOT TO BE USED FOR FLIGHT PLANNING PURPOSES.
IDs:

KJFK - New York/Kennedy Int, NY, US

Issued at 2040 UTC 25 Feb 2018
Updated at 2118 UTC 25 Feb 2018
Potential Impact None Slight Moderate High
Time2051Z 25/22Z 25/23Z 26/00Z 26/01Z 26/02Z 26/03Z 26/04Z 26/05Z 26/06Z 26/07Z 26/08Z 26/09Z 26/10Z>>
Type OBS PRVL PRVL PRVL PRVL PRVL PRVL PRVL PRVL PRVL PRVL PRVL PRVL PRVL
VIS 10 2 2 1 1 1 1 1 1 3 3 3 >6 >6
CIG 6 8 8 60 60 60 60 60 60 100 100 100 150 150
Cover OVC OVC OVC OVC OVC OVC OVC OVC OVC OVC OVC OVC BKN BKN
FltCat IFR IFR IFR IFR IFR IFR IFR IFR IFR MVFR MVFR MVFR VFR VFR
WX -- BR BR BR BR BR BR BR BR BR BR BR -- --
WDir 350 50 50 VRB VRB VRB VRB VRB VRB 300 300 300 310 310
WSpd 10 5 5 3 3 3 3 3 3 3 3 3 5 5
WGst -- -- -- -- -- -- -- -- -- -- -- -- -- --

Raw TAF
KJFK 252040Z 2521/2624 05005KT 2SM BR OVC008
  FM260000 VRB03KT 1SM BR OVC060
  FM260600 30003KT 3SM BR OVC100
  FM260900 31005KT P6SM BKN150
  FM261200 33007KT P6SM BKN200
  FM261500 29010KT P6SM FEW250
  FM261900 28010G18KT P6SM FEW250


Raw METAR
KJFK 252051Z 35010KT 10SM OVC006 06/05 A2999 RMK AO2 PRESRR SLP154 60000 T00560050 53019
KJFK 251951Z 01010KT 6SM BR BKN006 OVC010 05/05 A2996 RMK AO2 RAB1853E18 SLP143 P0000 T00500050
KJFK 251912Z 33014KT 3SM -RA BR OVC006 06/06 A2997 RMK AO2 RAB1853 P0000 T00560056
KJFK 251851Z 35010KT 2 1/2SM BR OVC006 06/06 A2994 RMK AO2 RAB1759E44 SLP138 P0000 T00610061
KJFK 251842Z 02010KT 2 1/2SM -RA BR OVC006 06/06 A2993 RMK AO2 RAB1759 P0000 T00610061

METAR Board
Radar Display
Forecast Discussion

FOR SITUATIONAL AWARENESS. NOT TO BE USED FOR FLIGHT PLANNING PURPOSES.